Terminal Aerodrome Forecast
Issued by NWS

Current Version | Previous Version | Text Only | Print | Product List | Glossary On
Versions: 1 2 3 4 5 6 7 8 9 10 11 12 13 14 15 16 17 18 19 20 21 22 23 24 25 26 27 28 29 30
000
FTAK31 PAFA 311434 AAA
TAFAOM
TAF AMD
PAOM 311434Z 3115/0112 09007KT P6SM SCT009 OVC022
      TEMPO 3115/3118 BKN009 OVC022
     FM311900 06004KT P6SM SCT007 BKN050
     FM312200 VRB04KT P6SM SKC=

USA.gov is the U.S. government's official web portal to all federal, state and local government web resources and services.